sensor_id;sensor_type;location;lat;lon;timestamp;P1;durP1;ratioP1;P2;durP2;ratioP2
74215;SDS011;62577;53.378;-2.914;2022-09-14T00:01:36;3.15;;;1.60;;
74215;SDS011;62577;53.378;-2.914;2022-09-14T00:04:05;3.30;;;1.40;;
74215;SDS011;62577;53.378;-2.914;2022-09-14T00:06:31;5.00;;;2.13;;
74215;SDS011;62577;53.378;-2.914;2022-09-14T00:08:57;5.25;;;2.10;;
74215;SDS011;62577;53.378;-2.914;2022-09-14T00:11:26;6.00;;;2.03;;
74215;SDS011;62577;53.378;-2.914;2022-09-14T00:13:52;4.18;;;2.00;;
74215;SDS011;62577;53.378;-2.914;2022-09-14T00:16:19;2.67;;;1.67;;
74215;SDS011;62577;53.378;-2.914;2022-09-14T00:18:52;5.13;;;2.78;;
74215;SDS011;62577;53.378;-2.914;2022-09-14T00:21:21;4.75;;;2.20;;
74215;SDS011;62577;53.378;-2.914;2022-09-14T00:23:47;6.53;;;2.13;;
74215;SDS011;62577;53.378;-2.914;2022-09-14T00:26:15;3.78;;;1.80;;
74215;SDS011;62577;53.378;-2.914;2022-09-14T00:28:43;9.15;;;2.13;;
74215;SDS011;62577;53.378;-2.914;2022-09-14T00:31:09;3.05;;;1.60;;
74215;SDS011;62577;53.378;-2.914;2022-09-14T00:33:35;4.80;;;2.00;;
74215;SDS011;62577;53.378;-2.914;2022-09-14T00:36:09;4.68;;;2.53;;
74215;SDS011;62577;53.378;-2.914;2022-09-14T00:38:36;5.95;;;2.25;;
74215;SDS011;62577;53.378;-2.914;2022-09-14T00:41:03;3.72;;;1.83;;
74215;SDS011;62577;53.378;-2.914;2022-09-14T00:43:29;3.75;;;2.03;;
74215;SDS011;62577;53.378;-2.914;2022-09-14T00:45:56;7.03;;;2.10;;
74215;SDS011;62577;53.378;-2.914;2022-09-14T00:48:24;4.53;;;1.63;;
74215;SDS011;62577;53.378;-2.914;2022-09-14T00:50:54;3.15;;;2.13;;
74215;SDS011;62577;53.378;-2.914;2022-09-14T00:53:20;3.55;;;1.95;;
74215;SDS011;62577;53.378;-2.914;2022-09-14T00:55:47;3.45;;;1.80;;
74215;SDS011;62577;53.378;-2.914;2022-09-14T00:58:13;3.38;;;1.30;;
74215;SDS011;62577;53.378;-2.914;2022-09-14T01:00:39;4.57;;;1.90;;
74215;SDS011;62577;53.378;-2.914;2022-09-14T01:03:06;4.13;;;1.65;;
74215;SDS011;62577;53.378;-2.914;2022-09-14T01:08:19;4.60;;;2.00;;
74215;SDS011;62577;53.378;-2.914;2022-09-14T01:18:31;4.18;;;1.75;;
74215;SDS011;62577;53.378;-2.914;2022-09-14T01:21:09;3.03;;;1.70;;
74215;SDS011;62577;53.378;-2.914;2022-09-14T01:29:10;4.57;;;2.28;;
74215;SDS011;62577;53.378;-2.914;2022-09-14T01:36:33;7.15;;;2.10;;
74215;SDS011;62577;53.378;-2.914;2022-09-14T01:39:00;5.00;;;2.17;;
74215;SDS011;62577;53.378;-2.914;2022-09-14T01:41:27;4.35;;;1.85;;
74215;SDS011;62577;53.378;-2.914;2022-09-14T01:44:05;4.20;;;2.05;;
74215;SDS011;62577;53.378;-2.914;2022-09-14T01:46:41;6.40;;;2.70;;
74215;SDS011;62577;53.378;-2.914;2022-09-14T01:49:18;8.88;;;2.47;;
74215;SDS011;62577;53.378;-2.914;2022-09-14T01:51:46;4.32;;;2.47;;
74215;SDS011;62577;53.378;-2.914;2022-09-14T01:54:26;3.97;;;2.05;;
74215;SDS011;62577;53.378;-2.914;2022-09-14T01:56:55;6.82;;;3.10;;
74215;SDS011;62577;53.378;-2.914;2022-09-14T01:59:23;4.40;;;2.35;;
74215;SDS011;62577;53.378;-2.914;2022-09-14T02:01:51;6.90;;;2.42;;
74215;SDS011;62577;53.378;-2.914;2022-09-14T02:04:33;5.53;;;2.33;;
74215;SDS011;62577;53.378;-2.914;2022-09-14T02:07:01;3.90;;;2.15;;
74215;SDS011;62577;53.378;-2.914;2022-09-14T02:09:27;7.60;;;2.42;;
74215;SDS011;62577;53.378;-2.914;2022-09-14T02:11:53;5.13;;;2.05;;
74215;SDS011;62577;53.378;-2.914;2022-09-14T02:14:24;4.95;;;2.72;;
74215;SDS011;62577;53.378;-2.914;2022-09-14T02:16:50;5.30;;;2.47;;
74215;SDS011;62577;53.378;-2.914;2022-09-14T02:19:16;9.23;;;3.08;;
74215;SDS011;62577;53.378;-2.914;2022-09-14T02:21:42;4.00;;;1.88;;
74215;SDS011;62577;53.378;-2.914;2022-09-14T02:24:08;4.35;;;3.20;;
74215;SDS011;62577;53.378;-2.914;2022-09-14T02:26:35;5.63;;;2.50;;
74215;SDS011;62577;53.378;-2.914;2022-09-14T02:29:01;5.28;;;2.60;;
74215;SDS011;62577;53.378;-2.914;2022-09-14T02:36:46;3.13;;;1.98;;
74215;SDS011;62577;53.378;-2.914;2022-09-14T02:44:33;4.93;;;2.42;;
74215;SDS011;62577;53.378;-2.914;2022-09-14T02:49:28;3.53;;;2.00;;
74215;SDS011;62577;53.378;-2.914;2022-09-14T02:52:03;4.82;;;2.00;;
74215;SDS011;62577;53.378;-2.914;2022-09-14T02:54:36;4.57;;;2.03;;
74215;SDS011;62577;53.378;-2.914;2022-09-14T02:57:03;7.00;;;1.58;;
74215;SDS011;62577;53.378;-2.914;2022-09-14T02:59:30;5.07;;;1.60;;
74215;SDS011;62577;53.378;-2.914;2022-09-14T03:01:56;3.95;;;1.83;;
74215;SDS011;62577;53.378;-2.914;2022-09-14T03:04:23;4.00;;;1.50;;
74215;SDS011;62577;53.378;-2.914;2022-09-14T03:06:49;3.45;;;1.50;;
74215;SDS011;62577;53.378;-2.914;2022-09-14T03:09:16;3.50;;;1.63;;
74215;SDS011;62577;53.378;-2.914;2022-09-14T03:11:42;6.82;;;2.13;;
74215;SDS011;62577;53.378;-2.914;2022-09-14T03:14:09;4.93;;;1.23;;
74215;SDS011;62577;53.378;-2.914;2022-09-14T03:16:35;7.95;;;1.65;;
74215;SDS011;62577;53.378;-2.914;2022-09-14T03:19:01;5.72;;;1.70;;
74215;SDS011;62577;53.378;-2.914;2022-09-14T03:21:28;5.75;;;1.88;;
74215;SDS011;62577;53.378;-2.914;2022-09-14T03:23:54;5.70;;;1.70;;
74215;SDS011;62577;53.378;-2.914;2022-09-14T03:26:22;4.80;;;1.65;;
74215;SDS011;62577;53.378;-2.914;2022-09-14T03:28:52;7.93;;;1.80;;
74215;SDS011;62577;53.378;-2.914;2022-09-14T03:31:18;5.43;;;1.55;;
74215;SDS011;62577;53.378;-2.914;2022-09-14T03:33:45;6.85;;;1.58;;
74215;SDS011;62577;53.378;-2.914;2022-09-14T03:36:11;4.35;;;1.42;;
74215;SDS011;62577;53.378;-2.914;2022-09-14T03:38:41;3.45;;;1.55;;
74215;SDS011;62577;53.378;-2.914;2022-09-14T03:41:07;3.60;;;1.60;;
74215;SDS011;62577;53.378;-2.914;2022-09-14T03:43:33;4.10;;;1.90;;
74215;SDS011;62577;53.378;-2.914;2022-09-14T03:46:06;5.25;;;1.73;;
74215;SDS011;62577;53.378;-2.914;2022-09-14T03:48:33;4.95;;;2.00;;
74215;SDS011;62577;53.378;-2.914;2022-09-14T03:51:02;6.80;;;2.50;;
74215;SDS011;62577;53.378;-2.914;2022-09-14T03:53:28;2.97;;;1.58;;
74215;SDS011;62577;53.378;-2.914;2022-09-14T03:55:54;7.20;;;1.98;;
74215;SDS011;62577;53.378;-2.914;2022-09-14T03:58:21;3.42;;;1.70;;
74215;SDS011;62577;53.378;-2.914;2022-09-14T04:00:47;4.80;;;1.98;;
74215;SDS011;62577;53.378;-2.914;2022-09-14T04:03:14;3.10;;;1.58;;
74215;SDS011;62577;53.378;-2.914;2022-09-14T04:05:40;4.47;;;1.65;;
74215;SDS011;62577;53.378;-2.914;2022-09-14T04:08:06;2.50;;;1.60;;
74215;SDS011;62577;53.378;-2.914;2022-09-14T04:10:32;3.60;;;2.40;;
74215;SDS011;62577;53.378;-2.914;2022-09-14T04:12:58;5.50;;;1.85;;
74215;SDS011;62577;53.378;-2.914;2022-09-14T04:15:26;7.78;;;2.00;;
74215;SDS011;62577;53.378;-2.914;2022-09-14T04:17:52;6.57;;;1.90;;
74215;SDS011;62577;53.378;-2.914;2022-09-14T04:20:18;4.60;;;2.00;;
74215;SDS011;62577;53.378;-2.914;2022-09-14T04:22:44;5.55;;;2.05;;
74215;SDS011;62577;53.378;-2.914;2022-09-14T04:25:11;5.53;;;2.13;;
74215;SDS011;62577;53.378;-2.914;2022-09-14T04:27:37;5.60;;;1.70;;
74215;SDS011;62577;53.378;-2.914;2022-09-14T04:30:04;3.22;;;1.80;;
74215;SDS011;62577;53.378;-2.914;2022-09-14T04:32:31;6.07;;;1.92;;
74215;SDS011;62577;53.378;-2.914;2022-09-14T04:34:57;8.52;;;1.60;;
74215;SDS011;62577;53.378;-2.914;2022-09-14T04:37:23;2.65;;;1.73;;
74215;SDS011;62577;53.378;-2.914;2022-09-14T04:39:49;3.17;;;1.30;;
74215;SDS011;62577;53.378;-2.914;2022-09-14T04:42:15;8.35;;;2.38;;
74215;SDS011;62577;53.378;-2.914;2022-09-14T04:44:41;8.15;;;2.85;;
74215;SDS011;62577;53.378;-2.914;2022-09-14T04:47:07;6.50;;;1.80;;
74215;SDS011;62577;53.378;-2.914;2022-09-14T04:49:33;7.45;;;2.33;;
74215;SDS011;62577;53.378;-2.914;2022-09-14T04:51:59;7.05;;;1.95;;
74215;SDS011;62577;53.378;-2.914;2022-09-14T04:54:25;5.45;;;1.85;;
74215;SDS011;62577;53.378;-2.914;2022-09-14T04:56:51;7.22;;;2.40;;
74215;SDS011;62577;53.378;-2.914;2022-09-14T04:59:17;4.88;;;2.13;;
74215;SDS011;62577;53.378;-2.914;2022-09-14T05:01:44;7.07;;;1.88;;
74215;SDS011;62577;53.378;-2.914;2022-09-14T05:04:13;7.03;;;1.83;;
74215;SDS011;62577;53.378;-2.914;2022-09-14T05:06:40;5.55;;;1.88;;
74215;SDS011;62577;53.378;-2.914;2022-09-14T05:09:09;6.07;;;2.03;;
74215;SDS011;62577;53.378;-2.914;2022-09-14T05:11:37;5.03;;;2.00;;
74215;SDS011;62577;53.378;-2.914;2022-09-14T05:14:03;5.55;;;1.83;;
74215;SDS011;62577;53.378;-2.914;2022-09-14T05:16:34;5.28;;;1.90;;
74215;SDS011;62577;53.378;-2.914;2022-09-14T05:19:01;8.23;;;2.50;;
74215;SDS011;62577;53.378;-2.914;2022-09-14T05:21:28;6.28;;;1.85;;
74215;SDS011;62577;53.378;-2.914;2022-09-14T05:23:58;5.60;;;1.95;;
74215;SDS011;62577;53.378;-2.914;2022-09-14T05:26:25;8.00;;;1.65;;
74215;SDS011;62577;53.378;-2.914;2022-09-14T05:28:52;4.82;;;1.73;;
74215;SDS011;62577;53.378;-2.914;2022-09-14T05:31:19;7.50;;;1.85;;
74215;SDS011;62577;53.378;-2.914;2022-09-14T05:33:46;7.35;;;2.60;;
74215;SDS011;62577;53.378;-2.914;2022-09-14T05:36:12;5.70;;;1.75;;
74215;SDS011;62577;53.378;-2.914;2022-09-14T05:38:39;6.10;;;1.65;;
74215;SDS011;62577;53.378;-2.914;2022-09-14T05:41:05;6.32;;;1.40;;
74215;SDS011;62577;53.378;-2.914;2022-09-14T05:43:32;3.35;;;1.45;;
74215;SDS011;62577;53.378;-2.914;2022-09-14T05:46:01;7.60;;;1.55;;
74215;SDS011;62577;53.378;-2.914;2022-09-14T05:48:31;6.78;;;1.75;;
74215;SDS011;62577;53.378;-2.914;2022-09-14T05:51:01;5.38;;;2.03;;
74215;SDS011;62577;53.378;-2.914;2022-09-14T05:53:28;4.65;;;1.80;;
74215;SDS011;62577;53.378;-2.914;2022-09-14T05:56:08;4.68;;;1.77;;
74215;SDS011;62577;53.378;-2.914;2022-09-14T05:58:35;9.60;;;2.00;;
74215;SDS011;62577;53.378;-2.914;2022-09-14T06:03:39;6.90;;;1.90;;
74215;SDS011;62577;53.378;-2.914;2022-09-14T06:06:06;9.43;;;1.90;;
74215;SDS011;62577;53.378;-2.914;2022-09-14T06:08:32;10.98;;;2.30;;
74215;SDS011;62577;53.378;-2.914;2022-09-14T06:11:05;6.00;;;1.90;;
74215;SDS011;62577;53.378;-2.914;2022-09-14T06:13:32;5.60;;;1.85;;
74215;SDS011;62577;53.378;-2.914;2022-09-14T06:16:08;5.50;;;1.90;;
74215;SDS011;62577;53.378;-2.914;2022-09-14T06:18:35;8.55;;;2.25;;
74215;SDS011;62577;53.378;-2.914;2022-09-14T06:21:05;5.70;;;2.00;;
74215;SDS011;62577;53.378;-2.914;2022-09-14T06:23:31;5.28;;;1.45;;
74215;SDS011;62577;53.378;-2.914;2022-09-14T06:25:58;5.90;;;1.63;;
74215;SDS011;62577;53.378;-2.914;2022-09-14T06:28:25;6.80;;;1.75;;
74215;SDS011;62577;53.378;-2.914;2022-09-14T06:30:51;12.38;;;2.30;;
74215;SDS011;62577;53.378;-2.914;2022-09-14T06:33:18;5.63;;;1.80;;
74215;SDS011;62577;53.378;-2.914;2022-09-14T06:36:44;7.07;;;1.95;;
74215;SDS011;62577;53.378;-2.914;2022-09-14T06:38:40;5.18;;;1.70;;
74215;SDS011;62577;53.378;-2.914;2022-09-14T06:41:07;4.95;;;1.65;;
74215;SDS011;62577;53.378;-2.914;2022-09-14T06:43:37;11.80;;;2.10;;
74215;SDS011;62577;53.378;-2.914;2022-09-14T06:46:08;11.43;;;2.67;;
74215;SDS011;62577;53.378;-2.914;2022-09-14T06:48:35;6.22;;;2.55;;
74215;SDS011;62577;53.378;-2.914;2022-09-14T06:53:57;8.93;;;2.25;;
74215;SDS011;62577;53.378;-2.914;2022-09-14T06:56:24;7.65;;;2.30;;
74215;SDS011;62577;53.378;-2.914;2022-09-14T06:58:50;13.50;;;2.53;;
74215;SDS011;62577;53.378;-2.914;2022-09-14T07:01:17;9.35;;;2.53;;
74215;SDS011;62577;53.378;-2.914;2022-09-14T07:03:44;4.57;;;2.13;;
74215;SDS011;62577;53.378;-2.914;2022-09-14T07:06:14;4.25;;;1.50;;
74215;SDS011;62577;53.378;-2.914;2022-09-14T07:08:41;6.63;;;1.95;;
74215;SDS011;62577;53.378;-2.914;2022-09-14T07:11:08;8.50;;;2.55;;
74215;SDS011;62577;53.378;-2.914;2022-09-14T07:13:34;7.40;;;1.35;;
74215;SDS011;62577;53.378;-2.914;2022-09-14T07:16:00;8.13;;;1.60;;
74215;SDS011;62577;53.378;-2.914;2022-09-14T07:18:27;6.70;;;1.73;;
74215;SDS011;62577;53.378;-2.914;2022-09-14T07:21:00;7.05;;;2.25;;
74215;SDS011;62577;53.378;-2.914;2022-09-14T07:23:27;8.13;;;2.00;;
74215;SDS011;62577;53.378;-2.914;2022-09-14T07:28:55;6.65;;;1.30;;
74215;SDS011;62577;53.378;-2.914;2022-09-14T07:31:23;7.75;;;2.45;;
74215;SDS011;62577;53.378;-2.914;2022-09-14T07:33:53;6.18;;;1.50;;
74215;SDS011;62577;53.378;-2.914;2022-09-14T07:36:19;6.32;;;1.63;;
74215;SDS011;62577;53.378;-2.914;2022-09-14T07:38:46;5.18;;;1.90;;
74215;SDS011;62577;53.378;-2.914;2022-09-14T07:41:12;4.97;;;1.85;;
74215;SDS011;62577;53.378;-2.914;2022-09-14T07:43:38;9.68;;;1.85;;
74215;SDS011;62577;53.378;-2.914;2022-09-14T07:46:04;7.22;;;2.00;;
74215;SDS011;62577;53.378;-2.914;2022-09-14T07:48:31;6.32;;;1.88;;
74215;SDS011;62577;53.378;-2.914;2022-09-14T07:51:01;5.82;;;1.25;;
74215;SDS011;62577;53.378;-2.914;2022-09-14T07:53:27;6.57;;;1.10;;
74215;SDS011;62577;53.378;-2.914;2022-09-14T07:55:56;7.70;;;1.80;;
74215;SDS011;62577;53.378;-2.914;2022-09-14T07:58:22;10.65;;;2.40;;
74215;SDS011;62577;53.378;-2.914;2022-09-14T08:00:48;6.68;;;1.40;;
74215;SDS011;62577;53.378;-2.914;2022-09-14T08:03:14;7.43;;;2.00;;
74215;SDS011;62577;53.378;-2.914;2022-09-14T08:05:40;5.13;;;1.20;;
74215;SDS011;62577;53.378;-2.914;2022-09-14T08:08:06;5.10;;;1.33;;
74215;SDS011;62577;53.378;-2.914;2022-09-14T08:10:33;5.53;;;1.75;;
74215;SDS011;62577;53.378;-2.914;2022-09-14T08:13:00;6.60;;;2.20;;
74215;SDS011;62577;53.378;-2.914;2022-09-14T08:15:26;4.43;;;1.20;;
74215;SDS011;62577;53.378;-2.914;2022-09-14T08:17:52;7.45;;;1.52;;
74215;SDS011;62577;53.378;-2.914;2022-09-14T08:20:19;4.07;;;1.30;;
74215;SDS011;62577;53.378;-2.914;2022-09-14T08:22:45;5.78;;;1.50;;
74215;SDS011;62577;53.378;-2.914;2022-09-14T08:25:11;5.63;;;1.45;;
74215;SDS011;62577;53.378;-2.914;2022-09-14T08:27:37;6.80;;;1.77;;
74215;SDS011;62577;53.378;-2.914;2022-09-14T08:30:04;6.03;;;1.92;;
74215;SDS011;62577;53.378;-2.914;2022-09-14T08:32:30;5.45;;;1.30;;
74215;SDS011;62577;53.378;-2.914;2022-09-14T08:34:56;5.05;;;1.70;;
74215;SDS011;62577;53.378;-2.914;2022-09-14T08:37:22;7.53;;;1.85;;
74215;SDS011;62577;53.378;-2.914;2022-09-14T08:39:48;5.32;;;1.30;;
74215;SDS011;62577;53.378;-2.914;2022-09-14T08:42:18;7.35;;;1.55;;
74215;SDS011;62577;53.378;-2.914;2022-09-14T08:44:59;6.72;;;1.50;;
74215;SDS011;62577;53.378;-2.914;2022-09-14T08:47:28;7.13;;;1.60;;
74215;SDS011;62577;53.378;-2.914;2022-09-14T08:50:10;6.68;;;1.52;;
74215;SDS011;62577;53.378;-2.914;2022-09-14T08:52:41;5.03;;;1.23;;
74215;SDS011;62577;53.378;-2.914;2022-09-14T08:55:31;4.75;;;1.33;;
74215;SDS011;62577;53.378;-2.914;2022-09-14T09:00:36;7.57;;;1.70;;
74215;SDS011;62577;53.378;-2.914;2022-09-14T09:03:23;10.80;;;2.45;;
74215;SDS011;62577;53.378;-2.914;2022-09-14T09:11:19;7.88;;;1.92;;
74215;SDS011;62577;53.378;-2.914;2022-09-14T09:13:47;7.40;;;1.95;;
74215;SDS011;62577;53.378;-2.914;2022-09-14T09:16:15;4.28;;;1.73;;
74215;SDS011;62577;53.378;-2.914;2022-09-14T09:18:48;4.93;;;1.58;;
74215;SDS011;62577;53.378;-2.914;2022-09-14T09:21:20;3.22;;;1.30;;
74215;SDS011;62577;53.378;-2.914;2022-09-14T09:23:47;4.90;;;1.50;;
74215;SDS011;62577;53.378;-2.914;2022-09-14T09:29:08;7.85;;;1.92;;
74215;SDS011;62577;53.378;-2.914;2022-09-14T09:31:36;8.18;;;2.17;;
74215;SDS011;62577;53.378;-2.914;2022-09-14T09:34:02;7.78;;;2.20;;
74215;SDS011;62577;53.378;-2.914;2022-09-14T09:36:36;6.18;;;1.52;;
74215;SDS011;62577;53.378;-2.914;2022-09-14T09:39:04;9.07;;;2.08;;
74215;SDS011;62577;53.378;-2.914;2022-09-14T09:41:30;6.75;;;1.13;;
74215;SDS011;62577;53.378;-2.914;2022-09-14T09:44:01;3.83;;;1.30;;
74215;SDS011;62577;53.378;-2.914;2022-09-14T09:46:31;9.13;;;1.52;;
74215;SDS011;62577;53.378;-2.914;2022-09-14T09:48:58;8.50;;;2.00;;
74215;SDS011;62577;53.378;-2.914;2022-09-14T09:53:51;5.05;;;1.15;;
74215;SDS011;62577;53.378;-2.914;2022-09-14T09:56:18;5.10;;;1.13;;
74215;SDS011;62577;53.378;-2.914;2022-09-14T09:58:45;5.70;;;1.58;;
74215;SDS011;62577;53.378;-2.914;2022-09-14T10:01:19;3.60;;;1.30;;
74215;SDS011;62577;53.378;-2.914;2022-09-14T10:06:25;3.47;;;1.10;;
74215;SDS011;62577;53.378;-2.914;2022-09-14T10:08:51;4.43;;;0.93;;
74215;SDS011;62577;53.378;-2.914;2022-09-14T10:13:57;5.40;;;0.98;;
74215;SDS011;62577;53.378;-2.914;2022-09-14T10:16:24;5.80;;;0.93;;
74215;SDS011;62577;53.378;-2.914;2022-09-14T10:18:53;3.38;;;1.20;;
74215;SDS011;62577;53.378;-2.914;2022-09-14T10:21:20;2.72;;;0.68;;
74215;SDS011;62577;53.378;-2.914;2022-09-14T10:24:00;4.50;;;1.20;;
74215;SDS011;62577;53.378;-2.914;2022-09-14T10:26:29;5.07;;;0.93;;
74215;SDS011;62577;53.378;-2.914;2022-09-14T10:29:14;4.13;;;1.02;;
74215;SDS011;62577;53.378;-2.914;2022-09-14T10:31:42;3.38;;;0.98;;
74215;SDS011;62577;53.378;-2.914;2022-09-14T10:34:12;7.50;;;1.25;;
74215;SDS011;62577;53.378;-2.914;2022-09-14T10:36:42;4.65;;;0.85;;
74215;SDS011;62577;53.378;-2.914;2022-09-14T10:41:43;3.00;;;0.82;;
74215;SDS011;62577;53.378;-2.914;2022-09-14T10:44:17;1.73;;;0.73;;
74215;SDS011;62577;53.378;-2.914;2022-09-14T10:54:32;2.70;;;1.27;;
74215;SDS011;62577;53.378;-2.914;2022-09-14T10:57:08;2.60;;;1.00;;
74215;SDS011;62577;53.378;-2.914;2022-09-14T11:07:19;3.03;;;1.08;;
74215;SDS011;62577;53.378;-2.914;2022-09-14T11:10:00;3.10;;;0.90;;
74215;SDS011;62577;53.378;-2.914;2022-09-14T11:18:13;4.75;;;1.35;;
74215;SDS011;62577;53.378;-2.914;2022-09-14T11:26:11;4.07;;;1.10;;
74215;SDS011;62577;53.378;-2.914;2022-09-14T11:31:09;3.80;;;1.10;;
74215;SDS011;62577;53.378;-2.914;2022-09-14T11:36:21;3.88;;;0.98;;
74215;SDS011;62577;53.378;-2.914;2022-09-14T11:41:25;5.28;;;1.20;;
74215;SDS011;62577;53.378;-2.914;2022-09-14T11:43:57;1.48;;;0.80;;
74215;SDS011;62577;53.378;-2.914;2022-09-14T11:46:38;3.30;;;1.10;;
74215;SDS011;62577;53.378;-2.914;2022-09-14T11:51:35;3.63;;;1.15;;
74215;SDS011;62577;53.378;-2.914;2022-09-14T11:54:01;3.67;;;1.15;;
74215;SDS011;62577;53.378;-2.914;2022-09-14T11:56:29;2.90;;;1.25;;
74215;SDS011;62577;53.378;-2.914;2022-09-14T11:59:00;3.38;;;0.98;;
74215;SDS011;62577;53.378;-2.914;2022-09-14T12:11:47;1.45;;;0.57;;
74215;SDS011;62577;53.378;-2.914;2022-09-14T12:19:33;1.92;;;0.75;;
74215;SDS011;62577;53.378;-2.914;2022-09-14T12:24:44;1.33;;;0.55;;
74215;SDS011;62577;53.378;-2.914;2022-09-14T12:27:14;1.70;;;0.73;;
74215;SDS011;62577;53.378;-2.914;2022-09-14T12:29:46;2.40;;;0.38;;
74215;SDS011;62577;53.378;-2.914;2022-09-14T12:37:42;1.98;;;0.82;;
74215;SDS011;62577;53.378;-2.914;2022-09-14T12:42:47;1.17;;;0.63;;
74215;SDS011;62577;53.378;-2.914;2022-09-14T12:47:58;1.42;;;0.50;;
74215;SDS011;62577;53.378;-2.914;2022-09-14T12:50:24;3.63;;;1.00;;
74215;SDS011;62577;53.378;-2.914;2022-09-14T12:53:02;3.03;;;0.75;;
74215;SDS011;62577;53.378;-2.914;2022-09-14T12:58:04;1.95;;;0.70;;
74215;SDS011;62577;53.378;-2.914;2022-09-14T13:00:33;3.53;;;0.90;;
74215;SDS011;62577;53.378;-2.914;2022-09-14T13:05:36;2.72;;;0.80;;
74215;SDS011;62577;53.378;-2.914;2022-09-14T13:08:07;2.47;;;0.90;;
74215;SDS011;62577;53.378;-2.914;2022-09-14T13:10:35;2.80;;;0.85;;
74215;SDS011;62577;53.378;-2.914;2022-09-14T13:13:04;1.88;;;0.70;;
74215;SDS011;62577;53.378;-2.914;2022-09-14T13:15:35;3.83;;;0.80;;
74215;SDS011;62577;53.378;-2.914;2022-09-14T13:18:05;0.70;;;0.60;;
74215;SDS011;62577;53.378;-2.914;2022-09-14T13:20:32;1.48;;;0.80;;
74215;SDS011;62577;53.378;-2.914;2022-09-14T13:22:59;1.67;;;0.57;;
74215;SDS011;62577;53.378;-2.914;2022-09-14T13:25:30;3.85;;;0.80;;
74215;SDS011;62577;53.378;-2.914;2022-09-14T13:28:01;2.25;;;0.60;;
74215;SDS011;62577;53.378;-2.914;2022-09-14T13:30:28;0.80;;;0.40;;
74215;SDS011;62577;53.378;-2.914;2022-09-14T13:32:55;2.50;;;0.63;;
74215;SDS011;62577;53.378;-2.914;2022-09-14T13:35:29;4.03;;;0.70;;
74215;SDS011;62577;53.378;-2.914;2022-09-14T13:37:57;2.25;;;0.55;;
74215;SDS011;62577;53.378;-2.914;2022-09-14T13:40:24;1.85;;;0.70;;
74215;SDS011;62577;53.378;-2.914;2022-09-14T13:42:52;1.65;;;0.65;;
74215;SDS011;62577;53.378;-2.914;2022-09-14T13:45:18;2.80;;;0.85;;
74215;SDS011;62577;53.378;-2.914;2022-09-14T13:47:44;2.40;;;0.73;;
74215;SDS011;62577;53.378;-2.914;2022-09-14T13:50:11;1.65;;;0.50;;
74215;SDS011;62577;53.378;-2.914;2022-09-14T13:52:38;1.67;;;0.55;;
74215;SDS011;62577;53.378;-2.914;2022-09-14T13:58:02;3.22;;;0.70;;
74215;SDS011;62577;53.378;-2.914;2022-09-14T14:00:27;3.72;;;0.60;;
74215;SDS011;62577;53.378;-2.914;2022-09-14T14:02:58;1.63;;;0.47;;
74215;SDS011;62577;53.378;-2.914;2022-09-14T14:05:25;1.83;;;0.40;;
74215;SDS011;62577;53.378;-2.914;2022-09-14T14:07:53;2.78;;;0.52;;
74215;SDS011;62577;53.378;-2.914;2022-09-14T14:10:21;0.88;;;0.60;;
74215;SDS011;62577;53.378;-2.914;2022-09-14T14:12:47;3.60;;;0.77;;
74215;SDS011;62577;53.378;-2.914;2022-09-14T14:15:35;2.00;;;0.70;;
74215;SDS011;62577;53.378;-2.914;2022-09-14T14:17:59;2.15;;;0.77;;
74215;SDS011;62577;53.378;-2.914;2022-09-14T14:20:27;3.47;;;0.80;;
74215;SDS011;62577;53.378;-2.914;2022-09-14T14:25:34;2.42;;;0.65;;
74215;SDS011;62577;53.378;-2.914;2022-09-14T14:28:02;2.53;;;0.70;;
74215;SDS011;62577;53.378;-2.914;2022-09-14T14:30:29;3.13;;;0.70;;
74215;SDS011;62577;53.378;-2.914;2022-09-14T14:32:56;0.70;;;0.52;;
74215;SDS011;62577;53.378;-2.914;2022-09-14T14:35:26;2.45;;;0.55;;
74215;SDS011;62577;53.378;-2.914;2022-09-14T14:37:52;2.08;;;0.60;;
74215;SDS011;62577;53.378;-2.914;2022-09-14T14:40:19;1.65;;;0.95;;
74215;SDS011;62577;53.378;-2.914;2022-09-14T14:42:45;3.83;;;0.98;;
74215;SDS011;62577;53.378;-2.914;2022-09-14T14:45:12;2.15;;;0.65;;
74215;SDS011;62577;53.378;-2.914;2022-09-14T14:47:39;2.55;;;0.60;;
74215;SDS011;62577;53.378;-2.914;2022-09-14T14:50:11;1.73;;;0.40;;
74215;SDS011;62577;53.378;-2.914;2022-09-14T14:52:38;3.20;;;0.70;;
74215;SDS011;62577;53.378;-2.914;2022-09-14T14:55:04;0.60;;;0.30;;
74215;SDS011;62577;53.378;-2.914;2022-09-14T14:57:30;1.67;;;0.50;;
74215;SDS011;62577;53.378;-2.914;2022-09-14T14:59:56;2.15;;;0.65;;
74215;SDS011;62577;53.378;-2.914;2022-09-14T15:02:22;3.72;;;0.73;;
74215;SDS011;62577;53.378;-2.914;2022-09-14T15:04:48;1.02;;;0.65;;
74215;SDS011;62577;53.378;-2.914;2022-09-14T15:07:14;3.38;;;0.60;;
74215;SDS011;62577;53.378;-2.914;2022-09-14T15:09:41;1.60;;;0.60;;
74215;SDS011;62577;53.378;-2.914;2022-09-14T15:12:12;1.63;;;0.60;;
74215;SDS011;62577;53.378;-2.914;2022-09-14T15:14:38;2.38;;;0.80;;
74215;SDS011;62577;53.378;-2.914;2022-09-14T15:17:04;2.72;;;0.47;;
74215;SDS011;62577;53.378;-2.914;2022-09-14T15:19:30;1.98;;;0.80;;
74215;SDS011;62577;53.378;-2.914;2022-09-14T15:21:56;2.03;;;0.90;;
74215;SDS011;62577;53.378;-2.914;2022-09-14T15:24:22;3.20;;;0.90;;
74215;SDS011;62577;53.378;-2.914;2022-09-14T15:26:48;2.90;;;0.50;;
74215;SDS011;62577;53.378;-2.914;2022-09-14T15:29:14;1.65;;;0.60;;
74215;SDS011;62577;53.378;-2.914;2022-09-14T15:31:44;1.38;;;0.52;;
74215;SDS011;62577;53.378;-2.914;2022-09-14T15:34:10;2.70;;;0.57;;
74215;SDS011;62577;53.378;-2.914;2022-09-14T15:36:37;2.35;;;0.60;;
74215;SDS011;62577;53.378;-2.914;2022-09-14T15:39:04;3.08;;;0.70;;
74215;SDS011;62577;53.378;-2.914;2022-09-14T15:41:30;2.38;;;0.77;;
74215;SDS011;62577;53.378;-2.914;2022-09-14T15:43:56;2.22;;;0.63;;
74215;SDS011;62577;53.378;-2.914;2022-09-14T15:46:23;2.13;;;0.70;;
74215;SDS011;62577;53.378;-2.914;2022-09-14T15:48:49;2.55;;;0.50;;
74215;SDS011;62577;53.378;-2.914;2022-09-14T15:51:15;2.35;;;0.60;;
74215;SDS011;62577;53.378;-2.914;2022-09-14T15:53:43;1.52;;;0.60;;
74215;SDS011;62577;53.378;-2.914;2022-09-14T15:56:10;4.40;;;0.90;;
74215;SDS011;62577;53.378;-2.914;2022-09-14T15:58:37;2.92;;;0.50;;
74215;SDS011;62577;53.378;-2.914;2022-09-14T16:01:10;2.15;;;1.00;;
74215;SDS011;62577;53.378;-2.914;2022-09-14T16:03:36;3.47;;;0.82;;
74215;SDS011;62577;53.378;-2.914;2022-09-14T16:06:04;1.65;;;0.77;;
74215;SDS011;62577;53.378;-2.914;2022-09-14T16:08:30;3.47;;;0.85;;
74215;SDS011;62577;53.378;-2.914;2022-09-14T16:11:00;1.92;;;0.63;;
74215;SDS011;62577;53.378;-2.914;2022-09-14T16:13:26;2.00;;;0.73;;
74215;SDS011;62577;53.378;-2.914;2022-09-14T16:16:05;1.27;;;0.50;;
74215;SDS011;62577;53.378;-2.914;2022-09-14T16:18:32;3.00;;;0.73;;
74215;SDS011;62577;53.378;-2.914;2022-09-14T16:23:31;3.88;;;0.82;;
74215;SDS011;62577;53.378;-2.914;2022-09-14T16:25:58;3.83;;;0.55;;
74215;SDS011;62577;53.378;-2.914;2022-09-14T16:28:24;1.92;;;0.70;;
74215;SDS011;62577;53.378;-2.914;2022-09-14T16:30:50;2.63;;;0.60;;
74215;SDS011;62577;53.378;-2.914;2022-09-14T16:33:16;1.35;;;0.85;;
74215;SDS011;62577;53.378;-2.914;2022-09-14T16:35:43;3.13;;;0.70;;
74215;SDS011;62577;53.378;-2.914;2022-09-14T16:38:09;2.53;;;0.77;;
74215;SDS011;62577;53.378;-2.914;2022-09-14T16:40:35;1.70;;;0.52;;
74215;SDS011;62577;53.378;-2.914;2022-09-14T16:43:01;4.35;;;1.13;;
74215;SDS011;62577;53.378;-2.914;2022-09-14T16:45:27;2.92;;;0.70;;
74215;SDS011;62577;53.378;-2.914;2022-09-14T16:47:53;2.15;;;0.70;;
74215;SDS011;62577;53.378;-2.914;2022-09-14T16:50:19;4.82;;;1.00;;
74215;SDS011;62577;53.378;-2.914;2022-09-14T16:52:46;4.35;;;0.80;;
74215;SDS011;62577;53.378;-2.914;2022-09-14T16:55:12;4.55;;;0.90;;
74215;SDS011;62577;53.378;-2.914;2022-09-14T16:57:38;4.70;;;0.88;;
74215;SDS011;62577;53.378;-2.914;2022-09-14T17:00:04;2.50;;;0.68;;
74215;SDS011;62577;53.378;-2.914;2022-09-14T17:02:30;3.83;;;0.65;;